首页
METAR-TAF:

METAR-TAF

机场 :

莱昂, 西班牙

纬度: 42-35N, 经度: 005-39W, 海拔: 926米

当前天气观测

该预报发布于29分钟前的07:00 UTC
风速14节,风向北转西北,有时为28节阵风,在西转西北之间变化
温度 10°C
湿度 62%
气压 1010 hPa
能见度10公里或以上
少量云层高于3000英尺

METAR: LELN 240700Z 34014G28KT 300V010 9999 FEW030 10/03 Q1010

时间: 08:29 (07:29 UTC)

预报

该预报发布于2小时和29分钟前的05:00 UTC
预报有效从24日的 06点(UTC)到 24日的 15点(UTC)
风速12节,风向西北
能见度10公里或以上
少量云层高于3000英尺
几率 40% :
短暂存在
从 24日的 06点(UTC)到 24日的 15点(UTC)
风速20节,风向西北,有时为30节阵风

TAF: LELN 240500Z 2406/2415 32012KT 9999 FEW030 PROB40 TEMPO 2406/2415 31020G30KT

超过4000个机场的气象观测和天气预报(METAR&TAF报告)。

可查询的气象台以黄色和红色小点在地图上表示。

将鼠标移到小点上方,可查看气象台名称。

然后点击查看天气观测和预报。

如需切换地图:点击带黑十字的绿色按钮放大地图;点击带横线的绿色按钮缩小地图;或者点击绿色箭头查看邻近地区的地图。


METAR-TAF: